createdAt,value
2022-11-05T00:00:00.367Z,47.6
2022-11-05T00:01:00.569Z,47.7
2022-11-05T00:02:00.495Z,47.8
2022-11-05T00:03:00.448Z,47.9
2022-11-05T00:04:00.465Z,48.2
2022-11-05T00:05:00.338Z,48.0
2022-11-05T00:06:00.315Z,48.0
2022-11-05T00:07:00.365Z,47.9
2022-11-05T00:08:00.315Z,47.8
2022-11-05T00:09:00.614Z,47.9
2022-11-05T00:10:00.328Z,48.0
2022-11-05T00:11:00.373Z,48.5
2022-11-05T00:12:00.374Z,48.5
2022-11-05T00:13:00.339Z,48.3
2022-11-05T00:14:00.481Z,48.6
2022-11-05T00:15:00.513Z,48.5
2022-11-05T00:16:00.567Z,48.9
2022-11-05T00:17:00.418Z,48.7
2022-11-05T00:18:00.335Z,48.6
2022-11-05T00:19:00.398Z,48.5
2022-11-05T00:20:00.318Z,48.4
2022-11-05T00:21:00.565Z,48.5
2022-11-05T00:22:00.354Z,48.5
2022-11-05T00:23:00.353Z,48.6
2022-11-05T00:24:01.378Z,48.6
2022-11-05T00:25:00.481Z,48.6
2022-11-05T00:26:00.361Z,48.7
2022-11-05T00:27:00.600Z,48.8
2022-11-05T00:28:00.471Z,48.7
2022-11-05T00:29:00.309Z,48.6
2022-11-05T00:30:00.499Z,48.5
2022-11-05T00:31:00.669Z,48.3
2022-11-05T00:32:00.447Z,48.7
2022-11-05T00:33:00.559Z,48.7
2022-11-05T00:34:00.351Z,48.7
2022-11-05T00:35:00.572Z,48.5
2022-11-05T00:36:00.478Z,48.7
2022-11-05T00:37:00.393Z,49.0
2022-11-05T00:38:00.391Z,49.5
2022-11-05T00:39:00.551Z,49.0
2022-11-05T00:40:00.436Z,48.7
2022-11-05T00:41:00.345Z,48.5
2022-11-05T00:42:00.337Z,48.4
2022-11-05T00:43:00.395Z,48.4
2022-11-05T00:44:00.417Z,48.3
2022-11-05T00:45:00.481Z,48.4
2022-11-05T00:46:00.498Z,48.2
2022-11-05T00:47:00.371Z,48.3
2022-11-05T00:48:00.323Z,48.5
2022-11-05T00:49:00.299Z,48.3
2022-11-05T00:50:00.283Z,48.1
2022-11-05T00:51:00.473Z,47.9
2022-11-05T00:52:00.285Z,47.5
2022-11-05T00:53:00.303Z,47.3
2022-11-05T00:54:00.307Z,47.2
2022-11-05T00:55:00.296Z,47.4
2022-11-05T00:56:00.303Z,47.3
2022-11-05T00:57:04.456Z,47.3
2022-11-05T00:58:00.299Z,47.3
2022-11-05T00:59:00.320Z,47.3
2022-11-05T01:00:00.300Z,47.5
2022-11-05T01:01:00.300Z,47.7
2022-11-05T01:02:00.575Z,47.8
2022-11-05T01:03:00.415Z,47.8
2022-11-05T01:04:00.345Z,47.7
2022-11-05T01:05:00.337Z,48.2
2022-11-05T01:06:00.381Z,48.0
2022-11-05T01:07:00.349Z,48.0
2022-11-05T01:08:00.371Z,48.1
2022-11-05T01:09:00.546Z,48.0
2022-11-05T01:10:00.397Z,48.0
2022-11-05T01:11:00.391Z,48.0
2022-11-05T01:12:00.312Z,47.9
2022-11-05T01:13:00.298Z,47.9
2022-11-05T01:14:00.291Z,47.9
2022-11-05T01:15:00.464Z,48.0
2022-11-05T01:16:00.292Z,48.1
2022-11-05T01:17:00.390Z,48.2
2022-11-05T01:18:00.305Z,48.2
2022-11-05T01:19:00.319Z,48.3
2022-11-05T01:20:00.307Z,48.5
2022-11-05T01:21:00.398Z,48.6
2022-11-05T01:22:00.307Z,48.8
2022-11-05T01:23:00.308Z,48.6
2022-11-05T01:24:00.334Z,48.5
2022-11-05T01:25:00.343Z,48.7
2022-11-05T01:26:00.347Z,49.3
2022-11-05T01:27:00.480Z,49.0
2022-11-05T01:28:00.331Z,48.9
2022-11-05T01:29:00.579Z,48.9
2022-11-05T01:30:00.309Z,48.9
2022-11-05T01:31:00.301Z,48.8
2022-11-05T01:32:00.323Z,48.8
2022-11-05T01:33:00.528Z,48.9
2022-11-05T01:34:00.323Z,48.9
2022-11-05T01:35:00.314Z,48.9
2022-11-05T01:36:00.389Z,48.9
2022-11-05T01:37:00.380Z,49.0
2022-11-05T01:38:00.309Z,49.0
2022-11-05T01:39:00.540Z,49.0
2022-11-05T01:40:00.347Z,49.0
2022-11-05T01:41:00.379Z,48.9
2022-11-05T01:42:00.371Z,48.8
2022-11-05T01:43:00.295Z,48.7
2022-11-05T01:44:00.340Z,48.9
2022-11-05T01:45:00.439Z,49.2
2022-11-05T01:46:00.286Z,49.3
2022-11-05T01:47:00.340Z,49.2
2022-11-05T01:48:00.399Z,49.1
2022-11-05T01:49:03.087Z,49.9
2022-11-05T01:50:00.286Z,50.0
2022-11-05T01:51:00.555Z,50.2
2022-11-05T01:52:00.285Z,49.8
2022-11-05T01:53:00.295Z,49.6
2022-11-05T01:54:00.298Z,49.5
2022-11-05T01:55:00.301Z,49.4
2022-11-05T01:56:00.296Z,49.4
2022-11-05T01:57:00.552Z,49.4
2022-11-05T01:58:00.292Z,49.4
2022-11-05T01:59:00.316Z,49.3
2022-11-05T02:00:00.359Z,49.4
2022-11-05T02:01:00.309Z,49.5
2022-11-05T02:02:00.460Z,49.5
2022-11-05T02:03:00.670Z,49.5
2022-11-05T02:04:00.392Z,49.9
2022-11-05T02:05:00.324Z,50.0
2022-11-05T02:06:00.357Z,50.1
2022-11-05T02:07:00.398Z,50.1
2022-11-05T02:08:00.506Z,50.5
2022-11-05T02:09:00.742Z,50.7
2022-11-05T02:10:00.496Z,51.0
2022-11-05T02:11:00.596Z,51.2
2022-11-05T02:12:00.408Z,51.3
2022-11-05T02:13:00.338Z,51.1
2022-11-05T02:14:00.920Z,51.1
2022-11-05T02:15:00.440Z,51.1
2022-11-05T02:16:00.302Z,51.3
2022-11-05T02:17:00.296Z,51.3
2022-11-05T02:18:00.301Z,51.6
2022-11-05T02:19:00.451Z,51.8
2022-11-05T02:20:00.315Z,52.4
2022-11-05T02:21:00.500Z,52.6
2022-11-05T02:22:00.279Z,52.7
2022-11-05T02:23:00.359Z,52.5
2022-11-05T02:24:00.301Z,52.3
2022-11-05T02:25:00.287Z,52.1
2022-11-05T02:26:00.373Z,51.9
2022-11-05T02:27:00.493Z,51.9
2022-11-05T02:28:00.375Z,51.9
2022-11-05T02:29:00.401Z,51.9
2022-11-05T02:30:00.365Z,51.7
2022-11-05T02:31:00.386Z,51.5
2022-11-05T02:32:00.385Z,51.5
2022-11-05T02:33:00.505Z,51.3
2022-11-05T02:34:00.558Z,51.1
2022-11-05T02:35:00.353Z,51.0
2022-11-05T02:36:00.341Z,50.9
2022-11-05T02:37:00.358Z,50.9
2022-11-05T02:38:00.357Z,50.9
2022-11-05T02:39:00.551Z,51.0
2022-11-05T02:40:00.346Z,50.9
2022-11-05T02:41:00.334Z,50.9
2022-11-05T02:42:04.700Z,50.8
2022-11-05T02:43:00.356Z,50.9
2022-11-05T02:44:00.337Z,51.0
2022-11-05T02:45:00.541Z,50.9
2022-11-05T02:46:00.334Z,50.7
2022-11-05T02:47:00.364Z,50.6
2022-11-05T02:48:00.342Z,50.6
2022-11-05T02:49:00.461Z,50.5
2022-11-05T02:50:00.327Z,50.5
2022-11-05T02:51:00.466Z,50.5
2022-11-05T02:52:00.394Z,50.5
2022-11-05T02:53:00.387Z,50.5
2022-11-05T02:54:00.402Z,50.4
2022-11-05T02:55:00.444Z,50.4
2022-11-05T02:56:00.352Z,50.5
2022-11-05T02:57:00.501Z,50.7
2022-11-05T02:58:00.325Z,50.9
2022-11-05T02:59:00.359Z,50.8
2022-11-05T03:00:00.289Z,50.8
2022-11-05T03:01:00.313Z,50.8
2022-11-05T03:02:00.520Z,50.6
2022-11-05T03:03:00.578Z,50.4
2022-11-05T03:04:00.486Z,50.3
2022-11-05T03:05:00.310Z,50.4
2022-11-05T03:06:00.280Z,50.5
2022-11-05T03:07:00.304Z,50.5
2022-11-05T03:08:00.300Z,50.5
2022-11-05T03:09:00.445Z,50.7
2022-11-05T03:10:00.334Z,50.7
2022-11-05T03:11:00.306Z,50.7
2022-11-05T03:12:00.292Z,50.6
2022-11-05T03:13:00.311Z,50.6
2022-11-05T03:14:00.309Z,50.5
2022-11-05T03:15:00.445Z,50.4
2022-11-05T03:16:00.325Z,50.2
2022-11-05T03:17:00.296Z,50.1
2022-11-05T03:18:00.319Z,50.0
2022-11-05T03:19:00.466Z,49.9
2022-11-05T03:20:00.312Z,50.0
2022-11-05T03:21:00.393Z,50.1
2022-11-05T03:22:00.285Z,49.9
2022-11-05T03:23:00.305Z,49.7
2022-11-05T03:24:00.306Z,49.8
2022-11-05T03:25:00.296Z,49.8
2022-11-05T03:26:00.298Z,49.9
2022-11-05T03:27:00.602Z,49.9
2022-11-05T03:28:00.299Z,49.9
2022-11-05T03:29:00.319Z,49.9
2022-11-05T03:30:00.336Z,49.8
2022-11-05T03:31:00.370Z,50.0
2022-11-05T03:32:00.341Z,49.9
2022-11-05T03:33:00.434Z,49.9
2022-11-05T03:34:00.315Z,49.8
2022-11-05T03:35:00.414Z,49.7
2022-11-05T03:36:00.353Z,49.7
2022-11-05T03:37:00.297Z,49.8
2022-11-05T03:38:00.306Z,49.9
2022-11-05T03:39:00.460Z,50.1
2022-11-05T03:40:00.313Z,50.1
2022-11-05T03:41:00.282Z,50.0
2022-11-05T03:42:00.313Z,50.1
2022-11-05T03:43:00.295Z,50.0
2022-11-05T03:44:00.298Z,50.0
2022-11-05T03:45:00.441Z,50.3
2022-11-05T03:46:00.333Z,50.4
2022-11-05T03:47:00.298Z,50.4
2022-11-05T03:48:00.302Z,50.2
2022-11-05T03:49:00.584Z,50.4
2022-11-05T03:50:00.315Z,50.4
2022-11-05T03:51:00.437Z,50.6
2022-11-05T03:52:00.311Z,50.5
2022-11-05T03:53:00.509Z,50.8
2022-11-05T03:54:00.313Z,50.8
2022-11-05T03:55:00.433Z,51.1
2022-11-05T03:56:00.464Z,51.0
2022-11-05T03:57:00.537Z,51.1
2022-11-05T03:58:00.296Z,51.0
2022-11-05T03:59:00.328Z,50.8
2022-11-05T04:00:00.365Z,50.7
2022-11-05T04:01:00.340Z,50.6
2022-11-05T04:02:00.472Z,50.6
2022-11-05T04:03:00.563Z,50.7
2022-11-05T04:04:00.382Z,50.5
2022-11-05T04:05:00.296Z,50.5
2022-11-05T04:06:00.352Z,50.4
2022-11-05T04:07:00.340Z,50.4
2022-11-05T04:08:00.307Z,50.3
2022-11-05T04:09:00.596Z,50.3
2022-11-05T04:10:00.292Z,50.3
2022-11-05T04:11:00.374Z,50.3
2022-11-05T04:12:00.316Z,50.2
2022-11-05T04:13:00.362Z,50.0
2022-11-05T04:14:00.464Z,49.9
2022-11-05T04:15:00.568Z,49.7
2022-11-05T04:16:00.304Z,49.5
2022-11-05T04:17:00.307Z,49.4
2022-11-05T04:18:00.308Z,49.3
2022-11-05T04:19:00.390Z,49.2
2022-11-05T04:20:00.280Z,49.0
2022-11-05T04:21:00.420Z,48.7
2022-11-05T04:22:00.297Z,48.2
2022-11-05T04:23:00.311Z,47.5
2022-11-05T04:24:00.293Z,46.2
2022-11-05T04:25:00.327Z,44.6
2022-11-05T04:26:00.287Z,44.0
2022-11-05T04:27:00.506Z,43.6
2022-11-05T04:28:00.309Z,42.4
2022-11-05T04:29:03.818Z,41.4
2022-11-05T04:30:00.338Z,41.2
2022-11-05T04:31:00.300Z,41.0
2022-11-05T04:32:00.280Z,40.4
2022-11-05T04:33:00.457Z,40.0
2022-11-05T04:34:00.536Z,39.5
2022-11-05T04:35:00.297Z,38.5
2022-11-05T04:36:00.294Z,38.3
2022-11-05T04:37:00.285Z,38.3
2022-11-05T04:38:00.298Z,38.4
2022-11-05T04:39:00.411Z,38.1
2022-11-05T04:40:00.308Z,38.0
2022-11-05T04:41:00.282Z,38.3
2022-11-05T04:42:00.307Z,38.5
2022-11-05T04:43:00.566Z,38.4
2022-11-05T04:44:00.394Z,38.8
2022-11-05T04:45:00.657Z,38.8
2022-11-05T04:46:00.290Z,38.4
2022-11-05T04:47:00.302Z,37.7
2022-11-05T04:48:00.318Z,37.5
2022-11-05T04:49:00.426Z,37.8
2022-11-05T04:50:00.461Z,38.3
2022-11-05T04:51:00.495Z,38.3
2022-11-05T04:52:00.311Z,38.2
2022-11-05T04:53:00.290Z,38.1
2022-11-05T04:54:00.380Z,38.0
2022-11-05T04:55:00.416Z,38.0
2022-11-05T04:56:00.348Z,38.2
2022-11-05T04:57:00.423Z,38.4
2022-11-05T04:58:00.382Z,38.5
2022-11-05T04:59:00.300Z,38.7
2022-11-05T05:00:00.326Z,38.8
2022-11-05T05:01:00.424Z,38.9
2022-11-05T05:02:00.481Z,38.8
2022-11-05T05:03:00.521Z,38.7
2022-11-05T05:04:00.437Z,38.7
2022-11-05T05:05:00.328Z,38.7
2022-11-05T05:06:03.784Z,38.8
2022-11-05T05:07:00.283Z,38.7
2022-11-05T05:08:00.293Z,38.8
2022-11-05T05:09:00.438Z,39.0
2022-11-05T05:10:00.300Z,39.1
2022-11-05T05:11:00.287Z,39.2
2022-11-05T05:12:00.304Z,39.3
2022-11-05T05:13:00.325Z,39.5
2022-11-05T05:14:00.282Z,39.8
2022-11-05T05:15:00.450Z,39.9
2022-11-05T05:16:00.315Z,39.9
2022-11-05T05:17:00.320Z,40.0
2022-11-05T05:18:00.301Z,39.9
2022-11-05T05:19:00.457Z,40.0
2022-11-05T05:20:00.376Z,40.0
2022-11-05T05:21:00.628Z,40.1
2022-11-05T05:22:00.319Z,40.0
2022-11-05T05:23:00.302Z,39.8
2022-11-05T05:24:00.300Z,39.9
2022-11-05T05:25:00.284Z,39.8
2022-11-05T05:26:00.311Z,39.8
2022-11-05T05:27:00.655Z,39.9
2022-11-05T05:28:00.356Z,39.7
2022-11-05T05:29:00.357Z,39.5
2022-11-05T05:30:00.285Z,39.3
2022-11-05T05:31:00.360Z,38.0
2022-11-05T05:32:00.385Z,36.9
2022-11-05T05:33:00.433Z,36.7
2022-11-05T05:34:00.431Z,36.4
2022-11-05T05:35:00.441Z,36.7
2022-11-05T05:36:00.319Z,36.5
2022-11-05T05:37:00.280Z,36.4
2022-11-05T05:38:00.308Z,36.5
2022-11-05T05:39:00.385Z,36.4
2022-11-05T05:40:00.305Z,36.2
2022-11-05T05:41:00.282Z,35.9
2022-11-05T05:42:00.292Z,35.7
2022-11-05T05:43:00.311Z,35.7
2022-11-05T05:44:00.287Z,35.7
2022-11-05T05:45:00.415Z,35.6
2022-11-05T05:46:00.282Z,35.6
2022-11-05T05:47:00.341Z,33.7
2022-11-05T05:48:00.327Z,33.8
2022-11-05T05:49:00.300Z,32.9
2022-11-05T05:50:00.428Z,32.5
2022-11-05T05:51:00.540Z,32.7
2022-11-05T05:52:00.300Z,32.7
2022-11-05T05:53:00.327Z,32.6
2022-11-05T05:54:00.286Z,32.0
2022-11-05T05:55:00.359Z,32.2
2022-11-05T05:56:00.370Z,32.4
2022-11-05T05:57:00.430Z,32.5
2022-11-05T05:58:00.391Z,32.4
2022-11-05T05:59:00.302Z,32.5
2022-11-05T06:00:00.305Z,32.7
2022-11-05T06:01:00.284Z,33.4
2022-11-05T06:02:00.454Z,33.5
2022-11-05T06:03:00.598Z,33.3
2022-11-05T06:04:00.333Z,32.6
2022-11-05T06:05:00.308Z,32.5
2022-11-05T06:06:00.392Z,33.6
2022-11-05T06:07:00.287Z,33.9
2022-11-05T06:08:00.279Z,34.0
2022-11-05T06:09:00.533Z,34.0
2022-11-05T06:10:00.280Z,33.8
2022-11-05T06:11:00.365Z,33.8
2022-11-05T06:12:00.316Z,34.1
2022-11-05T06:13:00.296Z,34.4
2022-11-05T06:14:00.298Z,34.5
2022-11-05T06:15:00.400Z,34.4
2022-11-05T06:16:00.284Z,34.4
2022-11-05T06:17:00.309Z,34.4
2022-11-05T06:18:00.363Z,34.1
2022-11-05T06:19:00.392Z,33.9
2022-11-05T06:20:00.285Z,33.6
2022-11-05T06:21:00.492Z,33.2
2022-11-05T06:22:00.323Z,32.9
2022-11-05T06:23:00.296Z,32.8
2022-11-05T06:24:00.350Z,32.9
2022-11-05T06:25:00.380Z,33.2
2022-11-05T06:26:00.300Z,33.7
2022-11-05T06:27:00.538Z,33.4
2022-11-05T06:28:00.301Z,33.3
2022-11-05T06:29:00.296Z,33.3
2022-11-05T06:30:00.312Z,33.1
2022-11-05T06:31:00.285Z,32.6
2022-11-05T06:32:00.326Z,32.4
2022-11-05T06:33:00.443Z,32.3
2022-11-05T06:34:00.298Z,32.2
2022-11-05T06:35:00.303Z,32.3
2022-11-05T06:36:00.454Z,32.2
2022-11-05T06:37:00.458Z,32.2
2022-11-05T06:38:00.308Z,32.6
2022-11-05T06:39:00.393Z,32.6
2022-11-05T06:40:00.307Z,32.7
2022-11-05T06:41:00.987Z,32.5
2022-11-05T06:43:00.303Z,32.7
2022-11-05T06:44:00.276Z,32.6
2022-11-05T06:45:00.444Z,32.4
2022-11-05T06:46:00.310Z,32.2
2022-11-05T06:47:00.309Z,31.7
2022-11-05T06:48:00.294Z,31.4
2022-11-05T06:49:00.308Z,31.2
2022-11-05T06:50:00.372Z,31.1
2022-11-05T06:51:00.466Z,30.4
2022-11-05T06:52:00.509Z,30.0
2022-11-05T06:53:00.432Z,29.7
2022-11-05T06:54:00.392Z,29.4
2022-11-05T06:55:00.378Z,29.3
2022-11-05T06:56:00.400Z,28.8
2022-11-05T06:57:00.401Z,28.7
2022-11-05T06:58:00.426Z,28.8
2022-11-05T06:59:00.298Z,28.9
2022-11-05T07:00:04.430Z,29.0
2022-11-05T07:01:00.474Z,28.7
2022-11-05T07:02:00.445Z,28.5
2022-11-05T07:03:00.476Z,28.4
2022-11-05T07:04:00.399Z,28.4
2022-11-05T07:05:00.283Z,28.5
2022-11-05T07:06:00.415Z,28.4
2022-11-05T07:07:00.443Z,28.4
2022-11-05T07:08:00.313Z,28.0
2022-11-05T07:09:00.598Z,27.7
2022-11-05T07:10:00.435Z,27.5
2022-11-05T07:11:00.355Z,27.7
2022-11-05T07:12:00.318Z,27.8
2022-11-05T07:13:03.716Z,28.0
2022-11-05T07:14:00.489Z,28.2
2022-11-05T07:15:00.525Z,28.4
2022-11-05T07:16:00.348Z,28.4
2022-11-05T07:17:00.455Z,28.2
2022-11-05T07:18:00.409Z,27.8
2022-11-05T07:19:00.344Z,27.7
2022-11-05T07:20:00.389Z,27.8
2022-11-05T07:21:00.907Z,27.8
2022-11-05T07:22:00.610Z,27.7
2022-11-05T07:23:00.469Z,27.4
2022-11-05T07:24:00.301Z,27.4
2022-11-05T07:25:00.326Z,27.4
2022-11-05T07:26:00.382Z,27.0
2022-11-05T07:27:00.651Z,26.6
2022-11-05T07:28:00.319Z,26.3
2022-11-05T07:29:00.297Z,26.2
2022-11-05T07:30:00.287Z,26.1
2022-11-05T07:31:00.305Z,26.1
2022-11-05T07:32:00.416Z,26.2
2022-11-05T07:33:00.525Z,26.2
2022-11-05T07:34:00.481Z,25.6
2022-11-05T07:35:00.352Z,25.4
2022-11-05T07:36:00.402Z,24.9
2022-11-05T07:37:00.324Z,24.6
2022-11-05T07:38:00.514Z,24.1
2022-11-05T07:39:00.805Z,24.5
2022-11-05T07:40:00.333Z,23.8
2022-11-05T07:41:00.355Z,23.5
2022-11-05T07:42:00.297Z,23.2
2022-11-05T07:43:00.388Z,23.3
2022-11-05T07:44:00.288Z,23.1
2022-11-05T07:45:00.646Z,22.7
2022-11-05T07:46:00.320Z,22.3
2022-11-05T07:47:00.287Z,21.4
2022-11-05T07:48:00.319Z,20.0
2022-11-05T07:49:00.311Z,19.0
2022-11-05T07:50:00.310Z,18.1
2022-11-05T07:51:00.412Z,18.6
2022-11-05T07:52:00.314Z,17.7
2022-11-05T07:53:00.304Z,15.5
2022-11-05T07:54:00.435Z,18.1
2022-11-05T07:55:00.329Z,18.2
2022-11-05T07:56:00.325Z,17.7
2022-11-05T07:57:00.444Z,17.3
2022-11-05T07:58:00.280Z,16.5
2022-11-05T07:59:00.314Z,15.4
2022-11-05T08:00:00.335Z,15.5
2022-11-05T08:01:00.476Z,15.1
2022-11-05T08:02:00.493Z,15.2
2022-11-05T08:03:09.482Z,16.4
2022-11-05T08:04:00.345Z,16.5
2022-11-05T08:05:00.337Z,15.4
2022-11-05T08:06:00.289Z,14.6
2022-11-05T08:07:00.337Z,13.8
2022-11-05T08:08:00.296Z,14.6
2022-11-05T08:09:00.456Z,13.7
2022-11-05T08:10:00.433Z,12.0
2022-11-05T08:11:00.313Z,11.1
2022-11-05T08:12:03.148Z,11.2
2022-11-05T08:13:00.286Z,12.5
2022-11-05T08:14:00.350Z,12.0
2022-11-05T08:15:00.482Z,12.7
2022-11-05T08:16:00.291Z,12.7
2022-11-05T08:17:00.324Z,10.5
2022-11-05T08:18:00.367Z,9.1
2022-11-05T08:19:00.390Z,8.6
2022-11-05T08:20:00.391Z,8.6
2022-11-05T08:21:00.471Z,8.2
2022-11-05T08:22:00.396Z,8.5
2022-11-05T08:23:00.301Z,8.4
2022-11-05T08:24:00.282Z,6.7
2022-11-05T08:25:06.462Z,6.4
2022-11-05T08:26:00.338Z,6.0
2022-11-05T08:27:00.418Z,4.3
2022-11-05T08:28:00.395Z,4.8
2022-11-05T08:29:00.297Z,4.5
2022-11-05T08:30:00.318Z,4.5
2022-11-05T08:31:00.283Z,4.4
2022-11-05T08:32:00.323Z,4.2
2022-11-05T08:33:00.422Z,4.2
2022-11-05T08:34:02.624Z,3.6
2022-11-05T08:35:00.295Z,2.8
2022-11-05T08:36:00.320Z,3.1
2022-11-05T08:37:00.326Z,2.9
2022-11-05T08:38:00.305Z,3.2
2022-11-05T08:39:00.485Z,3.5
2022-11-05T08:40:00.380Z,3.7
2022-11-05T08:41:00.444Z,1.8
2022-11-05T08:42:00.314Z,1.6
2022-11-05T08:43:00.295Z,1.4
2022-11-05T08:44:00.285Z,2.1
2022-11-05T08:45:00.516Z,3.0
2022-11-05T08:46:00.298Z,3.7
2022-11-05T08:47:00.290Z,3.9
2022-11-05T08:48:00.312Z,3.8
2022-11-05T08:49:00.295Z,2.9
2022-11-05T08:50:00.293Z,3.0
2022-11-05T08:51:00.477Z,1.7
2022-11-05T08:52:00.281Z,2.7
2022-11-05T08:53:00.355Z,3.0
2022-11-05T08:54:00.313Z,2.9
2022-11-05T08:55:00.400Z,2.7
2022-11-05T08:56:00.639Z,2.5
2022-11-05T08:57:00.452Z,2.4
2022-11-05T08:58:00.285Z,2.0
2022-11-05T08:59:00.315Z,1.8
2022-11-05T09:00:00.391Z,2.7
2022-11-05T09:01:04.541Z,3.6
2022-11-05T09:02:00.519Z,3.6
2022-11-05T09:03:00.523Z,3.5
2022-11-05T09:04:00.367Z,4.4
2022-11-05T09:05:00.313Z,4.0
2022-11-05T09:06:00.306Z,3.9
2022-11-05T09:07:00.282Z,3.8
2022-11-05T09:08:01.530Z,3.4
2022-11-05T09:09:00.429Z,2.8
2022-11-05T09:10:00.317Z,2.7
2022-11-05T09:11:00.283Z,2.6
2022-11-05T09:12:12.593Z,2.0
2022-11-05T09:13:00.417Z,2.0
2022-11-05T09:14:00.300Z,2.2
2022-11-05T09:15:00.491Z,1.9
2022-11-05T09:16:00.313Z,2.5
2022-11-05T09:17:00.280Z,2.2
2022-11-05T09:18:00.681Z,2.4
2022-11-05T09:19:00.285Z,2.5
2022-11-05T09:20:00.337Z,2.5
2022-11-05T09:21:00.445Z,2.7
2022-11-05T09:22:00.418Z,3.3
2022-11-05T09:23:00.291Z,2.6
2022-11-05T09:24:00.284Z,2.8
2022-11-05T09:25:00.293Z,1.9
2022-11-05T09:26:00.303Z,2.3
2022-11-05T09:27:00.491Z,2.4
2022-11-05T09:28:00.407Z,2.3
2022-11-05T09:29:00.968Z,2.1
2022-11-05T09:30:00.313Z,1.3
2022-11-05T09:31:00.299Z,1.7
2022-11-05T09:32:00.311Z,1.8
2022-11-05T09:33:00.418Z,1.9
2022-11-05T09:34:00.295Z,1.0
2022-11-05T09:35:00.354Z,1.2
2022-11-05T09:36:00.317Z,1.9
2022-11-05T09:37:00.302Z,2.9
2022-11-05T09:38:01.238Z,2.5
2022-11-05T09:39:00.433Z,1.8
2022-11-05T09:40:00.344Z,2.3
2022-11-05T09:41:00.316Z,2.6
2022-11-05T09:42:00.400Z,3.3
2022-11-05T09:43:00.414Z,3.0
2022-11-05T09:44:00.304Z,2.4
2022-11-05T09:45:00.468Z,3.0
2022-11-05T09:46:00.392Z,2.9
2022-11-05T09:47:00.293Z,2.6
2022-11-05T09:48:00.294Z,2.9
2022-11-05T09:49:00.282Z,2.8
2022-11-05T09:50:00.291Z,2.0
2022-11-05T09:51:00.438Z,2.6
2022-11-05T09:52:00.345Z,2.9
2022-11-05T09:53:00.326Z,1.8
2022-11-05T09:54:00.296Z,2.0
2022-11-05T09:55:00.303Z,4.4
2022-11-05T09:56:00.290Z,5.4
2022-11-05T09:57:00.439Z,6.0
2022-11-05T09:58:00.396Z,6.5
2022-11-05T09:59:00.395Z,7.3
2022-11-05T10:00:00.319Z,7.9
2022-11-05T10:01:00.507Z,8.2
2022-11-05T10:02:00.430Z,7.9
2022-11-05T10:03:00.469Z,8.1
2022-11-05T10:04:00.328Z,9.3
2022-11-05T10:05:04.913Z,8.2
2022-11-05T10:06:00.298Z,8.3
2022-11-05T10:07:00.361Z,8.6
2022-11-05T10:08:00.377Z,8.1
2022-11-05T10:09:00.458Z,7.9
2022-11-05T10:10:00.391Z,7.3
2022-11-05T10:11:00.384Z,7.3
2022-11-05T10:12:00.380Z,6.7
2022-11-05T10:13:00.431Z,5.6
2022-11-05T10:14:00.484Z,5.6
2022-11-05T10:15:00.396Z,5.1
2022-11-05T10:16:00.296Z,4.2
2022-11-05T10:17:00.393Z,4.0
2022-11-05T10:18:00.301Z,3.1
2022-11-05T10:19:00.339Z,2.7
2022-11-05T10:20:00.313Z,3.4
2022-11-05T10:21:00.525Z,3.1
2022-11-05T10:22:06.585Z,2.9
2022-11-05T10:23:00.338Z,3.0
2022-11-05T10:24:00.333Z,3.0
2022-11-05T10:25:00.334Z,3.2
2022-11-05T10:26:00.328Z,2.5
2022-11-05T10:27:00.472Z,2.2
2022-11-05T10:28:00.306Z,2.6
2022-11-05T10:29:00.471Z,2.5
2022-11-05T10:30:00.276Z,1.8
2022-11-05T10:31:00.286Z,1.8
2022-11-05T10:32:00.328Z,2.1
2022-11-05T10:33:00.434Z,2.1
2022-11-05T10:34:00.316Z,2.1
2022-11-05T10:35:00.325Z,2.2
2022-11-05T10:36:00.352Z,2.1
2022-11-05T10:37:00.379Z,3.0
2022-11-05T10:38:00.287Z,2.3
2022-11-05T10:39:00.601Z,2.6
2022-11-05T10:40:00.302Z,3.2
2022-11-05T10:41:00.317Z,3.4
2022-11-05T10:42:00.280Z,3.1
2022-11-05T10:43:00.309Z,2.8
2022-11-05T10:44:00.454Z,2.9
2022-11-05T10:45:00.521Z,2.9
2022-11-05T10:46:00.305Z,4.5
2022-11-05T10:47:00.288Z,3.7
2022-11-05T10:48:00.330Z,3.4
2022-11-05T10:49:00.400Z,4.2
2022-11-05T10:50:00.334Z,4.2
2022-11-05T10:51:00.692Z,4.0
2022-11-05T10:52:00.400Z,2.7
2022-11-05T10:53:00.305Z,2.9
2022-11-05T10:54:02.159Z,3.5
2022-11-05T10:55:00.560Z,3.1
2022-11-05T10:56:00.407Z,3.1
2022-11-05T10:57:00.581Z,2.5
2022-11-05T10:58:00.351Z,3.0
2022-11-05T10:59:00.366Z,3.1
2022-11-05T11:00:00.579Z,3.1
2022-11-05T11:01:00.581Z,3.0
2022-11-05T11:02:00.475Z,2.8
2022-11-05T11:03:00.419Z,3.5
2022-11-05T11:04:00.334Z,3.8
2022-11-05T11:05:00.298Z,3.6
2022-11-05T11:06:00.294Z,4.5
2022-11-05T11:07:00.284Z,3.8
2022-11-05T11:08:00.291Z,3.8
2022-11-05T11:09:00.572Z,4.3
2022-11-05T11:10:00.305Z,4.4
2022-11-05T11:11:00.307Z,4.4
2022-11-05T11:12:00.326Z,5.3
2022-11-05T11:13:00.310Z,6.2
2022-11-05T11:14:00.274Z,5.1
2022-11-05T11:15:00.481Z,5.7
2022-11-05T11:16:00.357Z,4.6
2022-11-05T11:17:00.292Z,4.8
2022-11-05T11:18:00.304Z,5.4
2022-11-05T11:19:00.302Z,5.2
2022-11-05T11:20:00.306Z,4.7
2022-11-05T11:21:00.435Z,4.4
2022-11-05T11:22:00.308Z,5.0
2022-11-05T11:23:00.324Z,4.9
2022-11-05T11:24:00.308Z,5.3
2022-11-05T11:25:00.312Z,5.6
2022-11-05T11:26:00.283Z,5.8
2022-11-05T11:27:00.440Z,6.0
2022-11-05T11:28:00.310Z,5.8
2022-11-05T11:29:00.290Z,6.1
2022-11-05T11:30:00.313Z,6.2
2022-11-05T11:31:00.469Z,6.1
2022-11-05T11:32:00.453Z,6.2
2022-11-05T11:33:00.478Z,6.2
2022-11-05T11:34:00.316Z,6.6
2022-11-05T11:35:00.297Z,8.6
2022-11-05T11:36:00.588Z,9.9
2022-11-05T11:37:00.353Z,10.2
2022-11-05T11:38:00.395Z,10.6
2022-11-05T11:39:00.550Z,11.7
2022-11-05T11:40:00.369Z,12.5
2022-11-05T11:41:00.291Z,12.8
2022-11-05T11:42:00.319Z,13.3
2022-11-05T11:43:00.498Z,14.0
2022-11-05T11:44:00.653Z,13.6
2022-11-05T11:45:00.658Z,13.1
2022-11-05T11:46:05.436Z,11.6
2022-11-05T11:47:00.519Z,10.9
2022-11-05T11:48:00.357Z,11.0
2022-11-05T11:49:00.316Z,10.1
2022-11-05T11:50:00.416Z,11.5
2022-11-05T11:51:00.647Z,11.7
2022-11-05T11:52:00.291Z,10.4
2022-11-05T11:53:00.298Z,9.5
2022-11-05T11:54:00.370Z,10.8
2022-11-05T11:55:00.319Z,12.4
2022-11-05T11:56:00.409Z,13.3
2022-11-05T11:57:00.581Z,14.1
2022-11-05T11:58:00.332Z,14.7
2022-11-05T11:59:00.422Z,15.1
2022-11-05T12:00:09.436Z,15.3
2022-11-05T12:01:00.451Z,12.7
2022-11-05T12:02:00.558Z,11.5
2022-11-05T12:03:02.022Z,11.3
2022-11-05T12:04:00.506Z,11.5
2022-11-05T12:05:00.589Z,11.2
2022-11-05T12:06:00.480Z,10.6
2022-11-05T12:07:00.301Z,11.5
2022-11-05T12:08:00.303Z,12.2
2022-11-05T12:09:06.551Z,13.7
2022-11-05T12:10:00.299Z,15.3
2022-11-05T12:11:00.298Z,15.5
2022-11-05T12:12:00.319Z,15.6
2022-11-05T12:13:00.307Z,15.1
2022-11-05T12:14:00.302Z,16.4
2022-11-05T12:15:00.463Z,15.5
2022-11-05T12:16:00.311Z,14.7
2022-11-05T12:17:00.415Z,14.5
2022-11-05T12:18:00.310Z,14.6
2022-11-05T12:19:00.292Z,14.9
2022-11-05T12:20:00.289Z,15.5
2022-11-05T12:21:00.417Z,15.7
2022-11-05T12:22:00.309Z,16.2
2022-11-05T12:23:00.304Z,16.6
2022-11-05T12:24:00.335Z,17.3
2022-11-05T12:25:00.347Z,18.3
2022-11-05T12:26:00.449Z,18.1
2022-11-05T12:27:00.554Z,18.2
2022-11-05T12:28:00.399Z,18.0
2022-11-05T12:29:17.743Z,18.8
2022-11-05T12:30:00.349Z,19.4
2022-11-05T12:31:00.324Z,19.5
2022-11-05T12:32:00.574Z,20.1
2022-11-05T12:33:00.579Z,20.1
2022-11-05T12:34:00.383Z,20.4
2022-11-05T12:35:00.483Z,20.7
2022-11-05T12:36:00.315Z,20.8
2022-11-05T12:37:00.367Z,21.4
2022-11-05T12:38:00.301Z,22.3
2022-11-05T12:39:00.666Z,22.4
2022-11-05T12:40:00.308Z,22.5
2022-11-05T12:41:00.371Z,22.8
2022-11-05T12:42:00.284Z,22.1
2022-11-05T12:43:00.312Z,22.0
2022-11-05T12:44:00.288Z,22.1
2022-11-05T12:45:00.466Z,22.3
2022-11-05T12:46:00.318Z,22.4
2022-11-05T12:47:00.370Z,23.4
2022-11-05T12:48:00.305Z,23.0
2022-11-05T12:49:00.279Z,22.8
2022-11-05T12:50:00.345Z,23.3
2022-11-05T12:51:00.466Z,23.1
2022-11-05T12:52:00.338Z,24.1
2022-11-05T12:53:00.296Z,23.2
2022-11-05T12:54:00.280Z,23.0
2022-11-05T12:55:00.295Z,22.9
2022-11-05T12:56:00.347Z,22.8
2022-11-05T12:57:00.530Z,23.1
2022-11-05T12:58:00.347Z,23.2
2022-11-05T12:59:00.361Z,23.2
2022-11-05T13:00:00.295Z,23.4
2022-11-05T13:01:00.380Z,23.6
2022-11-05T13:02:00.668Z,23.7
2022-11-05T13:03:00.484Z,24.0
2022-11-05T13:04:00.382Z,24.1
2022-11-05T13:05:00.289Z,24.2
2022-11-05T13:06:05.443Z,24.5
2022-11-05T13:07:00.299Z,24.6
2022-11-05T13:08:00.311Z,24.8
2022-11-05T13:09:00.551Z,24.7
2022-11-05T13:10:00.316Z,24.5
2022-11-05T13:11:00.302Z,24.7
2022-11-05T13:12:00.367Z,24.8
2022-11-05T13:13:00.307Z,25.1
2022-11-05T13:14:00.356Z,25.2
2022-11-05T13:15:00.569Z,25.3
2022-11-05T13:16:00.314Z,25.2
2022-11-05T13:17:00.305Z,25.0
2022-11-05T13:18:00.635Z,25.3
2022-11-05T13:19:00.302Z,25.5
2022-11-05T13:20:00.306Z,25.5
2022-11-05T13:21:00.434Z,25.6
2022-11-05T13:22:00.309Z,25.6
2022-11-05T13:23:00.327Z,25.7
2022-11-05T13:24:00.313Z,26.5
2022-11-05T13:25:00.323Z,26.2
2022-11-05T13:26:00.295Z,26.0